Archer, Idaho
Current Conditions -  °F | °C
As of 4:53 PM on Monday 24 Nov 2014 (Local Time) from KRXE Reporting Station
Clear Clear  
Wind Chill: -3°   Ceiling: Unl
Heat Index:   Visibility: 10mi
Dew Point: -5°   Wind: 10mph
Humidity: 64%   Direction: 210°SSW
Pressure: 30.29"   Gusts: NA
Location:  43.7568°N, 111.624°W
Report Text: KRXE 242353Z AUTO 21009KT 10SM CLR 01/M05 A3029 RMK AO2 SLP288 T00111050 10039 20000 51001
Loading
Personal Weather Stations






























Interactive Weather Map New forecast layout! Learn more

10-Day Weather Forecast

Advertisements
Track Severe Weather on mobile